Time;durP1;ratioP1;P1;durP2;ratioP2;P2;SDS_P1;SDS_P2;PMS_P1;PMS_P2;Temp;Humidity;BMP_temperature;BMP_pressure;BME280_temperature;BME280_humidity;BME280_pressure;Samples;Min_cycle;Max_cycle;Signal;HPM_P1;HPM_P2
2021/03/08 00:02:10;;;;;;;21.40;14.20;;;5.00;90.30;;;;;;5034205;28;20048;-76
2021/03/08 00:04:36;;;;;;;23.23;14.65;;;4.90;90.40;;;;;;5034508;28;20030;-76
2021/03/08 00:07:02;;;;;;;23.80;14.07;;;4.80;90.50;;;;;;5034408;28;20033;-76
2021/03/08 00:09:28;;;;;;;25.27;15.15;;;4.90;90.60;;;;;;5034488;28;20080;-76
2021/03/08 00:11:54;;;;;;;21.33;14.70;;;4.90;90.60;;;;;;5034246;28;20032;-76
2021/03/08 00:14:20;;;;;;;25.80;14.23;;;4.80;90.60;;;;;;5016671;28;20120;-76
2021/03/08 00:16:45;;;;;;;25.27;14.20;;;4.90;90.60;;;;;;5034483;28;20030;-76
2021/03/08 00:19:11;;;;;;;21.27;14.32;;;4.90;90.70;;;;;;5034294;28;20395;-76
2021/03/08 00:21:37;;;;;;;21.65;14.15;;;4.90;90.60;;;;;;5033993;28;20472;-76
2021/03/08 00:24:03;;;;;;;22.55;14.45;;;4.90;90.60;;;;;;5033350;28;20040;-77
2021/03/08 00:26:28;;;;;;;23.48;13.93;;;4.90;90.60;;;;;;5034346;28;20029;-76
2021/03/08 00:28:54;;;;;;;22.17;14.07;;;4.90;90.60;;;;;;5031985;28;20518;-77
2021/03/08 00:31:20;;;;;;;26.33;15.73;;;4.90;90.60;;;;;;5032631;28;20037;-76
2021/03/08 00:33:45;;;;;;;23.15;14.50;;;4.90;90.60;;;;;;5034351;28;20030;-76
2021/03/08 00:36:11;;;;;;;23.42;14.65;;;4.90;90.70;;;;;;5033930;28;20100;-76
2021/03/08 00:38:37;;;;;;;24.13;14.55;;;4.90;90.70;;;;;;5034095;28;20056;-77
2021/03/08 00:41:02;;;;;;;23.20;15.85;;;4.90;90.60;;;;;;5033475;28;20676;-76
2021/03/08 00:43:28;;;;;;;24.52;14.45;;;4.90;90.80;;;;;;5032768;28;20463;-76
2021/03/08 00:45:54;;;;;;;25.48;15.25;;;4.90;90.70;;;;;;5033617;28;20026;-76
2021/03/08 00:48:19;;;;;;;24.60;15.25;;;4.90;90.80;;;;;;5033643;28;20245;-77
2021/03/08 00:50:45;;;;;;;21.55;13.93;;;4.90;90.80;;;;;;5033548;28;20025;-76
2021/03/08 00:53:11;;;;;;;26.13;14.57;;;4.90;90.80;;;;;;5033825;28;20014;-76
2021/03/08 00:55:37;;;;;;;28.52;14.82;;;4.90;90.80;;;;;;5033716;28;20433;-77
2021/03/08 00:58:02;;;;;;;22.25;14.15;;;4.80;90.80;;;;;;5033648;28;20030;-77
2021/03/08 01:00:28;;;;;;;22.13;14.50;;;4.80;90.90;;;;;;5033527;28;20032;-76
2021/03/08 01:02:55;;;;;;;29.95;14.98;;;4.80;91.00;;;;;;5022732;28;20537;-77
2021/03/08 01:05:21;;;;;;;23.65;15.35;;;4.80;91.00;;;;;;5015890;28;20048;-77
2021/03/08 01:07:47;;;;;;;26.35;15.65;;;4.80;91.00;;;;;;5033228;28;20025;-76
2021/03/08 01:10:15;;;;;;;22.60;14.88;;;4.80;91.00;;;;;;5033103;28;20029;-77
2021/03/08 01:12:41;;;;;;;25.63;16.15;;;4.80;91.10;;;;;;5033419;28;20031;-76
2021/03/08 01:15:08;;;;;;;25.80;15.27;;;4.80;91.10;;;;;;5033445;28;20446;-76
2021/03/08 01:17:35;;;;;;;24.15;14.25;;;4.80;91.10;;;;;;5032132;28;20576;-76
2021/03/08 01:20:01;;;;;;;27.55;16.38;;;4.90;91.10;;;;;;5032947;28;20104;-76
2021/03/08 01:22:26;;;;;;;23.17;13.45;;;4.90;91.00;;;;;;5033358;28;20104;-76
2021/03/08 01:24:52;;;;;;;24.02;15.10;;;4.90;91.40;;;;;;5033317;28;20026;-76
2021/03/08 01:27:18;;;;;;;25.50;14.48;;;4.80;91.10;;;;;;5033127;28;20444;-76
2021/03/08 01:29:43;;;;;;;20.88;13.68;;;4.80;91.10;;;;;;5032651;28;20052;-77
2021/03/08 01:32:09;;;;;;;26.77;15.35;;;4.80;91.20;;;;;;5033093;28;20025;-76
2021/03/08 01:34:34;;;;;;;21.95;14.35;;;4.80;91.30;;;;;;5033145;28;20021;-76
2021/03/08 01:37:00;;;;;;;22.15;14.18;;;4.70;91.30;;;;;;5023479;28;20022;-76
2021/03/08 01:39:27;;;;;;;24.63;14.30;;;4.80;91.30;;;;;;5032836;28;20033;-77
2021/03/08 01:41:53;;;;;;;22.48;13.80;;;4.80;91.30;;;;;;5016113;28;20075;-76
2021/03/08 01:44:18;;;;;;;23.10;15.07;;;4.80;91.30;;;;;;5033155;28;20026;-76
2021/03/08 01:46:44;;;;;;;23.73;14.63;;;4.80;91.30;;;;;;5015190;28;20036;-76
2021/03/08 01:49:10;;;;;;;23.67;15.35;;;4.80;91.30;;;;;;5032808;28;20029;-76
2021/03/08 01:51:35;;;;;;;23.63;14.57;;;4.80;91.20;;;;;;5020484;28;20022;-76
2021/03/08 01:54:01;;;;;;;22.95;14.25;;;4.80;91.30;;;;;;5032860;28;20057;-76
2021/03/08 01:56:27;;;;;;;22.10;13.93;;;4.80;91.30;;;;;;5031577;28;20026;-76
2021/03/08 01:58:53;;;;;;;24.70;14.75;;;4.80;91.30;;;;;;5031784;28;20037;-77
2021/03/08 02:01:19;;;;;;;20.85;14.48;;;4.70;91.30;;;;;;5032836;28;20029;-76
2021/03/08 02:03:44;;;;;;;22.05;14.48;;;4.80;91.40;;;;;;5031198;28;20033;-77
2021/03/08 02:06:10;;;;;;;21.85;14.85;;;4.70;91.40;;;;;;5032518;28;20092;-76
2021/03/08 02:08:38;;;;;;;26.13;14.85;;;4.70;91.40;;;;;;5031274;28;20025;-77
2021/03/08 02:11:03;;;;;;;23.33;14.85;;;4.80;91.50;;;;;;5032629;28;20033;-77
2021/03/08 02:14:06;;;;;;;22.17;14.73;;;4.70;91.40;;;;;;5032578;28;20022;-76
2021/03/08 02:16:55;;;;;;;21.80;14.10;;;4.70;91.50;;;;;;5032698;28;20488;-77
2021/03/08 02:19:58;;;;;;;22.63;14.65;;;4.70;91.50;;;;;;5032659;28;20108;-76
2021/03/08 02:23:01;;;;;;;22.05;14.60;;;4.60;91.60;;;;;;5014998;28;20029;-77
2021/03/08 02:25:42;;;;;;;25.80;15.27;;;4.60;91.80;;;;;;5032771;28;20025;-77
2021/03/08 02:28:37;;;;;;;27.38;16.02;;;4.60;91.80;;;;;;5032422;28;20031;-76
2021/03/08 02:31:07;;;;;;;23.85;14.57;;;4.60;91.80;;;;;;5023696;28;20080;-77
2021/03/08 02:33:35;;;;;;;25.33;15.05;;;4.60;91.80;;;;;;5032462;28;20383;-76
2021/03/08 02:36:04;;;;;;;22.88;14.63;;;4.60;91.80;;;;;;5032287;28;20033;-76
2021/03/08 02:38:46;;;;;;;21.23;13.55;;;4.60;91.70;;;;;;5032607;28;20029;-77
2021/03/08 02:41:15;;;;;;;24.80;15.50;;;4.70;91.70;;;;;;5032221;28;20029;-76
2021/03/08 02:43:46;;;;;;;23.20;14.25;;;4.70;91.70;;;;;;5014679;28;20498;-76
2021/03/08 02:46:22;;;;;;;23.40;14.80;;;4.60;91.70;;;;;;5032276;28;20544;-76
2021/03/08 02:48:51;;;;;;;26.23;15.32;;;4.60;91.90;;;;;;5031136;28;20124;-76
2021/03/08 02:51:19;;;;;;;25.20;15.13;;;4.60;91.80;;;;;;5032377;28;20108;-76
2021/03/08 02:53:48;;;;;;;26.67;15.35;;;4.60;91.80;;;;;;5036044;28;20379;-76
2021/03/08 02:56:20;;;;;;;27.90;15.07;;;4.60;91.80;;;;;;5035784;28;20037;-76
2021/03/08 02:58:48;;;;;;;26.90;15.38;;;4.60;91.90;;;;;;5035757;28;20030;-76
2021/03/08 03:01:17;;;;;;;26.65;15.38;;;4.60;91.90;;;;;;5035907;28;20029;-76
2021/03/08 03:03:47;;;;;;;27.50;15.63;;;4.60;91.90;;;;;;5034578;28;20021;-76
2021/03/08 03:06:14;;;;;;;26.73;15.65;;;4.60;91.90;;;;;;5035548;28;20116;-76
2021/03/08 03:08:42;;;;;;;25.30;15.07;;;4.50;92.00;;;;;;5035808;28;20026;-76
2021/03/08 03:11:09;;;;;;;29.35;16.83;;;4.50;92.10;;;;;;5035522;28;20022;-77
2021/03/08 03:13:40;;;;;;;27.58;15.15;;;4.50;92.20;;;;;;5035631;28;20018;-77
2021/03/08 03:16:07;;;;;;;23.00;14.90;;;4.40;92.20;;;;;;5035608;28;20013;-76
2021/03/08 03:18:35;;;;;;;26.27;15.88;;;4.40;92.30;;;;;;5034518;28;20048;-76
2021/03/08 03:21:03;;;;;;;27.63;16.20;;;4.50;92.40;;;;;;5035167;28;20040;-76
2021/03/08 03:23:31;;;;;;;26.77;15.90;;;4.50;92.30;;;;;;5035430;28;20017;-76
2021/03/08 03:25:59;;;;;;;27.48;16.88;;;4.50;92.30;;;;;;5034045;28;20025;-76
2021/03/08 03:28:26;;;;;;;24.67;15.48;;;4.50;92.30;;;;;;5017309;28;20041;-76
2021/03/08 03:30:52;;;;;;;23.45;14.85;;;4.50;92.30;;;;;;5017331;28;20046;-76
2021/03/08 03:33:19;;;;;;;26.98;15.85;;;4.40;92.40;;;;;;5035537;28;20095;-76
2021/03/08 03:35:47;;;;;;;28.15;16.42;;;4.40;92.50;;;;;;5029429;28;20025;-76
2021/03/08 03:38:18;;;;;;;25.40;15.90;;;4.40;92.60;;;;;;5033912;28;20087;-77
2021/03/08 03:40:43;;;;;;;26.92;16.08;;;4.40;92.60;;;;;;5034806;28;20067;-76
2021/03/08 03:43:09;;;;;;;24.48;16.05;;;4.40;92.60;;;;;;5017504;28;20021;-76
2021/03/08 03:45:35;;;;;;;27.27;15.75;;;4.40;92.60;;;;;;5034935;28;20036;-77
2021/03/08 03:48:00;;;;;;;27.88;16.65;;;4.40;92.60;;;;;;5034583;28;20049;-76
2021/03/08 03:50:26;;;;;;;29.80;16.73;;;4.40;92.60;;;;;;5034888;28;20028;-76
2021/03/08 03:52:52;;;;;;;24.27;15.45;;;4.30;92.80;;;;;;5034959;28;20033;-76
2021/03/08 03:55:19;;;;;;;27.35;16.85;;;4.30;93.00;;;;;;5033452;28;20136;-76
2021/03/08 03:58:28;;;;;;;22.95;15.18;;;4.30;92.90;;;;;;5034797;28;20030;-76
2021/03/08 04:01:02;;;;;;;25.17;15.80;;;4.40;92.80;;;;;;4966009;28;20117;-76
2021/03/08 04:05:59;;;;;;;28.40;17.65;;;4.40;92.80;;;;;;5047574;22;20057;-79
2021/03/08 04:08:26;;;;;;;26.08;16.05;;;4.30;92.80;;;;;;5054746;28;20056;-77
2021/03/08 04:10:53;;;;;;;30.23;16.83;;;4.30;92.90;;;;;;5054392;28;20053;-79
2021/03/08 04:13:26;;;;;;;25.35;16.13;;;4.30;92.80;;;;;;5054642;28;20059;-79
2021/03/08 04:15:53;;;;;;;25.63;16.25;;;4.40;92.80;;;;;;5054329;28;20033;-79
2021/03/08 04:18:21;;;;;;;31.83;17.13;;;4.40;92.70;;;;;;5054389;28;20025;-79
2021/03/08 04:20:48;;;;;;;29.05;16.55;;;4.50;92.70;;;;;;5054398;28;20033;-78
2021/03/08 04:23:16;;;;;;;28.00;16.65;;;4.40;92.60;;;;;;5053152;28;20478;-79
2021/03/08 04:25:46;;;;;;;27.80;16.45;;;4.50;92.70;;;;;;5054252;28;20062;-79
2021/03/08 04:28:13;;;;;;;26.27;16.47;;;4.50;92.60;;;;;;5054193;28;20486;-79
2021/03/08 04:30:42;;;;;;;28.65;16.00;;;4.40;92.60;;;;;;5053562;28;20530;-79
2021/03/08 04:33:09;;;;;;;33.20;16.90;;;4.40;92.80;;;;;;5034053;28;20033;-79
2021/03/08 04:35:36;;;;;;;30.40;16.15;;;4.40;92.70;;;;;;5051651;28;20025;-79
2021/03/08 04:38:05;;;;;;;31.25;17.52;;;4.30;92.80;;;;;;5053234;28;20553;-79
2021/03/08 04:40:32;;;;;;;31.88;16.58;;;4.30;93.00;;;;;;5053245;28;20025;-79
2021/03/08 04:42:58;;;;;;;31.42;18.02;;;4.20;93.30;;;;;;5052734;28;20033;-79
2021/03/08 04:45:24;;;;;;;30.08;17.17;;;4.10;93.50;;;;;;5052636;28;20371;-79
2021/03/08 04:47:51;;;;;;;34.65;18.70;;;4.10;93.60;;;;;;5052481;28;20443;-79
2021/03/08 04:50:17;;;;;;;31.27;18.45;;;4.10;93.70;;;;;;5053542;28;20049;-79
2021/03/08 04:52:49;;;;;;;29.27;16.73;;;4.10;93.70;;;;;;5053720;28;20032;-79
2021/03/08 04:55:15;;;;;;;33.35;17.40;;;4.10;93.70;;;;;;5053833;28;20032;-79
2021/03/08 04:57:42;;;;;;;26.27;16.35;;;4.20;93.60;;;;;;5053344;28;20474;-79
2021/03/08 05:00:09;;;;;;;28.88;17.02;;;4.20;93.50;;;;;;5052214;28;20025;-79
2021/03/08 05:02:36;;;;;;;32.20;18.52;;;4.20;93.60;;;;;;5053769;28;20120;-79
2021/03/08 05:05:05;;;;;;;34.08;17.52;;;4.20;93.50;;;;;;5053068;28;20067;-79
2021/03/08 05:07:35;;;;;;;28.17;16.30;;;4.20;93.60;;;;;;5053465;28;20087;-79
2021/03/08 05:10:02;;;;;;;33.67;17.42;;;4.20;93.60;;;;;;5053424;28;20029;-79
2021/03/08 05:12:30;;;;;;;28.90;16.70;;;4.20;93.60;;;;;;5052155;28;20082;-79
2021/03/08 05:14:58;;;;;;;28.40;17.20;;;4.20;93.60;;;;;;5052973;28;20486;-79
2021/03/08 05:17:26;;;;;;;30.17;17.77;;;4.20;93.60;;;;;;5052201;28;20036;-79
2021/03/08 05:19:52;;;;;;;35.40;17.25;;;4.30;93.50;;;;;;5053047;28;20040;-79
2021/03/08 05:22:19;;;;;;;28.65;18.35;;;4.30;93.50;;;;;;5053381;28;20056;-79
2021/03/08 05:24:49;;;;;;;30.05;18.10;;;4.30;93.50;;;;;;5052967;28;20498;-79
2021/03/08 05:27:15;;;;;;;30.38;19.50;;;4.30;93.40;;;;;;5053351;28;20025;-79
2021/03/08 05:29:43;;;;;;;35.10;17.85;;;4.30;93.40;;;;;;5051840;28;20032;-79
2021/03/08 05:32:41;;;;;;;31.90;17.75;;;4.30;93.50;;;;;;5053197;28;20047;-79
2021/03/08 05:35:07;;;;;;;29.23;18.15;;;4.30;93.60;;;;;;5052441;28;20556;-79
2021/03/08 05:37:34;;;;;;;32.45;18.75;;;4.30;93.60;;;;;;5052980;28;20087;-79
2021/03/08 05:40:04;;;;;;;29.55;17.02;;;4.30;93.50;;;;;;5052693;28;20364;-79
2021/03/08 05:42:34;;;;;;;33.03;18.17;;;4.30;93.50;;;;;;5051667;28;20021;-79
2021/03/08 05:45:08;;;;;;;34.25;18.10;;;4.30;93.40;;;;;;5052858;28;20032;-79
2021/03/08 05:47:55;;;;;;;34.30;17.90;;;4.40;93.50;;;;;;5052884;28;20444;-79
2021/03/08 05:50:29;;;;;;;32.60;18.00;;;4.40;93.40;;;;;;5051442;28;20132;-79
2021/03/08 05:53:20;;;;;;;31.27;17.70;;;4.40;93.40;;;;;;5051339;28;20479;-79
2021/03/08 05:56:14;;;;;;;35.15;19.27;;;4.40;93.40;;;;;;5033036;28;20741;-79
2021/03/08 05:59:21;;;;;;;30.88;17.98;;;4.50;93.40;;;;;;5043309;28;20470;-79
2021/03/08 06:02:10;;;;;;;33.47;18.85;;;4.50;93.40;;;;;;5051506;28;20586;-79
2021/03/08 06:05:05;;;;;;;32.38;17.92;;;4.40;93.30;;;;;;5051138;28;20482;-79
2021/03/08 06:07:52;;;;;;;30.73;18.08;;;4.50;93.50;;;;;;5051574;28;20033;-79
2021/03/08 06:10:26;;;;;;;32.63;18.65;;;4.50;93.50;;;;;;5052801;28;20112;-79
2021/03/08 06:12:54;;;;;;;28.98;18.33;;;4.50;93.40;;;;;;5052660;28;20029;-79
2021/03/08 06:15:22;;;;;;;36.75;19.38;;;4.60;93.30;;;;;;5052241;28;20383;-79
2021/03/08 06:17:51;;;;;;;31.38;19.13;;;4.60;93.30;;;;;;5052773;28;20028;-79
2021/03/08 06:20:18;;;;;;;28.00;17.48;;;4.60;93.30;;;;;;5052369;28;20064;-78
2021/03/08 06:22:44;;;;;;;31.83;18.95;;;4.60;93.40;;;;;;5052501;28;20040;-79
2021/03/08 06:25:12;;;;;;;33.63;20.05;;;4.60;93.30;;;;;;5032706;28;20605;-79
2021/03/08 06:27:41;;;;;;;32.53;18.50;;;4.70;93.20;;;;;;5033058;28;20044;-78
2021/03/08 06:30:08;;;;;;;37.10;20.55;;;4.80;93.20;;;;;;5041795;28;20501;-79
2021/03/08 06:32:34;;;;;;;34.45;18.90;;;4.90;93.10;;;;;;5054626;28;20127;-79
2021/03/08 06:35:00;;;;;;;37.13;19.23;;;4.90;93.00;;;;;;5055729;28;20148;-79
2021/03/08 06:37:27;;;;;;;36.35;19.65;;;4.90;93.00;;;;;;5055953;28;20031;-79
2021/03/08 06:39:52;;;;;;;30.17;18.08;;;4.90;93.00;;;;;;5054447;28;20043;-79
2021/03/08 06:42:18;;;;;;;30.70;18.33;;;4.90;93.00;;;;;;5055944;28;20120;-79
2021/03/08 06:44:49;;;;;;;30.92;18.15;;;4.90;93.00;;;;;;5056043;28;20029;-79
2021/03/08 06:47:16;;;;;;;33.80;19.80;;;4.90;93.00;;;;;;5056195;28;20033;-79
2021/03/08 06:49:41;;;;;;;36.30;19.38;;;4.90;93.00;;;;;;5055677;28;20483;-80
2021/03/08 06:52:09;;;;;;;39.40;18.83;;;5.00;93.10;;;;;;5054856;28;20048;-79
2021/03/08 06:54:39;;;;;;;28.77;18.33;;;5.00;93.30;;;;;;5055801;28;20032;-79
2021/03/08 06:57:25;;;;;;;34.35;19.23;;;5.10;93.00;;;;;;5054640;28;20063;-79
2021/03/08 06:59:59;;;;;;;31.73;19.17;;;5.10;92.90;;;;;;5055912;28;20104;-79
2021/03/08 07:02:48;;;;;;;38.17;18.45;;;5.10;92.90;;;;;;5055655;28;20033;-79
2021/03/08 07:05:23;;;;;;;36.75;20.30;;;5.20;93.00;;;;;;5055478;28;20045;-79
2021/03/08 07:07:59;;;;;;;34.80;19.55;;;5.20;93.00;;;;;;5055378;28;20029;-79
2021/03/08 07:10:31;;;;;;;33.92;19.38;;;5.30;92.80;;;;;;5054288;28;20479;-79
2021/03/08 07:12:57;;;;;;;37.22;19.15;;;5.40;92.90;;;;;;5055729;28;20729;-79
2021/03/08 07:15:23;;;;;;;29.25;18.20;;;5.40;92.70;;;;;;5055801;28;20017;-76
2021/03/08 07:17:49;;;;;;;39.13;19.23;;;5.50;92.70;;;;;;5054093;28;20086;-77
2021/03/08 07:20:19;;;;;;;38.35;20.95;;;5.50;92.70;;;;;;5055573;28;20386;-77
2021/03/08 07:22:51;;;;;;;34.40;20.10;;;5.60;92.70;;;;;;5054339;28;20021;-76
2021/03/08 07:25:20;;;;;;;29.48;18.60;;;5.70;92.70;;;;;;5055614;28;20025;-77
2021/03/08 07:28:04;;;;;;;33.65;17.67;;;5.70;92.50;;;;;;5049963;28;20087;-76
2021/03/08 07:30:38;;;;;;;34.78;19.83;;;5.80;92.50;;;;;;5050490;28;20478;-76
2021/03/08 07:33:11;;;;;;;33.78;19.40;;;5.80;92.50;;;;;;5053857;28;20033;-77
2021/03/08 07:35:49;;;;;;;34.58;20.83;;;5.90;92.50;;;;;;5055694;28;20029;-77
2021/03/08 07:38:28;;;;;;;36.50;20.00;;;5.90;92.40;;;;;;5054622;28;20644;-77
2021/03/08 07:41:17;;;;;;;32.05;19.05;;;6.00;92.40;;;;;;5035231;28;20028;-76
2021/03/08 07:43:44;;;;;;;35.17;20.17;;;6.10;92.40;;;;;;5035331;28;20041;-77
2021/03/08 07:46:26;;;;;;;33.75;21.15;;;6.10;92.40;;;;;;5033730;28;20056;-76
2021/03/08 07:48:53;;;;;;;33.38;20.05;;;6.20;92.60;;;;;;5035445;28;20059;-76
2021/03/08 07:51:19;;;;;;;33.50;21.48;;;6.20;92.60;;;;;;5046392;28;20413;-76
2021/03/08 07:53:45;;;;;;;33.40;20.00;;;6.20;92.60;;;;;;5040628;28;20033;-76
2021/03/08 07:56:10;;;;;;;37.35;20.80;;;6.30;92.80;;;;;;5046075;28;20029;-79
2021/03/08 07:58:38;;;;;;;33.85;20.23;;;6.30;92.60;;;;;;5037177;28;20032;-79
2021/03/08 08:01:06;;;;;;;37.58;20.98;;;6.30;92.20;;;;;;5045623;28;20021;-78
2021/03/08 08:03:36;;;;;;;43.15;22.20;;;6.40;92.40;;;;;;5038252;28;20033;-79
2021/03/08 08:06:05;;;;;;;34.70;21.02;;;6.40;92.30;;;;;;5031762;28;20159;-77
2021/03/08 08:08:33;;;;;;;35.05;20.92;;;6.50;92.60;;;;;;5049507;28;20094;-79
2021/03/08 08:11:00;;;;;;;32.03;20.38;;;6.50;92.80;;;;;;5063879;28;20041;-77
2021/03/08 08:13:47;;;;;;;33.85;20.58;;;6.50;92.80;;;;;;5037016;28;20040;-79
2021/03/08 08:16:36;;;;;;;33.92;21.08;;;6.60;93.00;;;;;;5047938;28;20056;-78
2021/03/08 08:19:06;;;;;;;34.28;20.42;;;6.70;93.20;;;;;;5050683;28;20140;-77
2021/03/08 08:21:44;;;;;;;33.65;20.85;;;6.70;93.00;;;;;;5051045;28;20025;-77
2021/03/08 08:24:25;;;;;;;35.40;21.88;;;6.80;92.90;;;;;;5050967;28;20033;-76
2021/03/08 08:26:54;;;;;;;34.50;21.52;;;6.80;92.90;;;;;;5039770;28;20021;-77
2021/03/08 08:29:24;;;;;;;34.33;19.48;;;6.90;93.00;;;;;;5049979;28;20514;-77
2021/03/08 08:32:02;;;;;;;36.78;20.92;;;6.90;92.70;;;;;;5065502;28;20497;-76
2021/03/08 08:34:35;;;;;;;33.60;21.20;;;7.00;92.60;;;;;;5051465;28;20689;-76
2021/03/08 08:37:22;;;;;;;38.33;21.48;;;7.00;92.30;;;;;;5066393;28;20029;-77
2021/03/08 08:39:51;;;;;;;35.75;21.67;;;7.00;91.80;;;;;;5066335;28;20427;-77
2021/03/08 08:42:23;;;;;;;34.97;20.38;;;7.00;91.60;;;;;;5065981;28;20041;-77
2021/03/08 08:44:54;;;;;;;34.58;19.80;;;7.10;91.60;;;;;;5050231;28;20487;-76
2021/03/08 08:47:35;;;;;;;34.45;20.15;;;7.10;91.80;;;;;;5053945;28;20029;-78
2021/03/08 08:50:28;;;;;;;35.03;21.10;;;7.50;92.20;;;;;;5044621;28;20052;-79
2021/03/08 08:52:56;;;;;;;39.15;21.58;;;7.40;91.30;;;;;;5031025;28;20036;-78
2021/03/08 08:55:42;;;;;;;33.85;19.98;;;7.40;91.50;;;;;;5028248;28;20029;-78
2021/03/08 08:58:21;;;;;;;39.55;19.73;;;7.40;91.70;;;;;;5030742;28;20025;-78
2021/03/08 09:01:13;;;;;;;30.98;18.15;;;7.50;92.00;;;;;;5028018;28;20029;-79
2021/03/08 09:04:01;;;;;;;31.02;19.23;;;7.50;91.70;;;;;;5030753;28;20659;-78
2021/03/08 09:06:41;;;;;;;32.40;18.75;;;7.60;91.40;;;;;;5030882;28;20083;-79
2021/03/08 09:09:09;;;;;;;28.60;18.38;;;7.60;91.00;;;;;;5030541;28;20036;-79
2021/03/08 09:11:52;;;;;;;30.77;18.95;;;7.60;91.30;;;;;;5045283;28;20021;-79
2021/03/08 09:14:27;;;;;;;30.30;18.27;;;7.70;91.60;;;;;;5048951;28;20044;-79
2021/03/08 09:17:17;;;;;;;34.70;19.02;;;7.80;91.30;;;;;;5049489;28;20029;-80
2021/03/08 09:19:55;;;;;;;22.25;15.27;;;7.90;90.60;;;;;;5050178;28;20040;-79
2021/03/08 09:22:26;;;;;;;28.38;16.42;;;7.90;89.20;;;;;;5049973;28;20391;-78
2021/03/08 09:25:10;;;;;;;32.70;18.20;;;7.90;89.10;;;;;;5049400;28;20025;-79
2021/03/08 09:28:00;;;;;;;30.73;17.25;;;7.90;89.20;;;;;;5050175;28;20032;-79
2021/03/08 09:30:47;;;;;;;30.70;17.80;;;8.00;90.40;;;;;;5048675;28;20021;-78
2021/03/08 09:33:20;;;;;;;34.22;18.92;;;8.00;89.90;;;;;;5034558;28;20092;-79
2021/03/08 09:35:51;;;;;;;36.40;19.48;;;8.00;90.00;;;;;;5040173;28;20658;-78
2021/03/08 09:38:22;;;;;;;31.10;18.20;;;8.00;90.10;;;;;;5046590;28;20025;-79
2021/03/08 09:40:53;;;;;;;31.17;18.48;;;8.10;90.20;;;;;;5033648;28;20031;-78
2021/03/08 09:43:27;;;;;;;30.17;18.15;;;8.20;90.20;;;;;;5034154;28;20032;-78
2021/03/08 09:45:57;;;;;;;31.42;18.05;;;8.30;90.50;;;;;;5049989;28;20029;-78
2021/03/08 09:48:23;;;;;;;30.25;19.15;;;8.30;90.00;;;;;;5045768;28;20029;-78
2021/03/08 09:50:48;;;;;;;32.05;18.48;;;8.40;90.10;;;;;;5045324;28;20055;-78
2021/03/08 09:53:14;;;;;;;31.05;19.70;;;8.50;90.30;;;;;;5049102;28;20036;-78
2021/03/08 09:55:40;;;;;;;30.48;18.35;;;8.50;88.70;;;;;;5048309;28;20028;-78
2021/03/08 09:58:17;;;;;;;30.95;18.73;;;8.50;88.00;;;;;;5048995;28;20025;-78
2021/03/08 10:00:45;;;;;;;30.90;17.02;;;8.60;87.80;;;;;;5050027;28;20096;-79
2021/03/08 10:03:12;;;;;;;35.33;19.42;;;8.60;85.30;;;;;;5053201;28;20613;-78
2021/03/08 10:05:49;;;;;;;29.60;18.35;;;8.60;85.70;;;;;;5052358;28;20081;-78
2021/03/08 10:08:17;;;;;;;31.08;18.67;;;8.70;87.00;;;;;;5053086;28;20859;-78
2021/03/08 10:10:42;;;;;;;34.85;19.73;;;8.80;87.10;;;;;;5044281;28;20036;-78
2021/03/08 10:13:08;;;;;;;33.47;19.77;;;8.70;86.10;;;;;;5032422;28;20025;-78
2021/03/08 10:15:45;;;;;;;29.70;19.95;;;8.80;88.30;;;;;;5032772;28;20022;-78
2021/03/08 10:18:12;;;;;;;36.05;19.30;;;8.80;89.30;;;;;;5033623;28;20025;-78
2021/03/08 10:20:50;;;;;;;30.38;18.33;;;8.80;87.50;;;;;;5033778;28;20018;-78
2021/03/08 10:23:25;;;;;;;34.72;18.58;;;8.90;87.40;;;;;;5033274;28;20036;-79
2021/03/08 10:25:51;;;;;;;35.30;19.92;;;9.10;86.30;;;;;;5034003;28;20510;-78
2021/03/08 10:28:17;;;;;;;32.53;20.05;;;9.10;85.50;;;;;;5033190;28;20495;-78
2021/03/08 10:30:43;;;;;;;28.65;18.20;;;9.10;85.50;;;;;;5034274;28;20075;-78
2021/03/08 10:33:12;;;;;;;29.23;18.80;;;9.10;84.60;;;;;;5031097;28;20415;-78
2021/03/08 10:35:43;;;;;;;34.25;17.35;;;9.20;85.60;;;;;;5033662;28;20029;-78
2021/03/08 10:38:10;;;;;;;30.38;18.42;;;9.20;83.70;;;;;;5031850;28;20021;-78
2021/03/08 10:40:37;;;;;;;27.38;17.52;;;9.30;84.90;;;;;;5032960;28;20696;-78
2021/03/08 10:43:03;;;;;;;31.95;17.45;;;9.30;83.30;;;;;;5030818;28;20112;-79
2021/03/08 10:45:29;;;;;;;28.77;17.77;;;9.30;84.30;;;;;;5034253;28;20497;-79
2021/03/08 10:48:10;;;;;;;31.88;18.77;;;9.60;86.20;;;;;;5032471;28;20108;-79
2021/03/08 10:50:51;;;;;;;34.47;18.27;;;9.60;82.10;;;;;;5032988;28;20044;-79
2021/03/08 10:53:20;;;;;;;29.33;18.13;;;9.70;83.80;;;;;;5032679;28;20025;-78
2021/03/08 10:55:47;;;;;;;29.77;17.83;;;9.70;82.10;;;;;;5032732;28;20072;-78
2021/03/08 10:58:14;;;;;;;27.52;17.42;;;9.70;82.00;;;;;;5031231;28;20026;-79
2021/03/08 11:00:42;;;;;;;34.13;17.35;;;9.70;82.00;;;;;;5032187;28;20096;-79
2021/03/08 11:03:45;;;;;;;29.25;17.25;;;9.80;82.00;;;;;;5030683;28;20017;-79
2021/03/08 11:06:12;;;;;;;24.48;16.85;;;10.00;85.30;;;;;;4971383;28;20128;-78
2021/03/08 11:08:40;;;;;;;28.73;18.05;;;10.10;82.60;;;;;;5020558;28;20042;-78
2021/03/08 11:11:29;;;;;;;32.13;19.38;;;10.10;80.80;;;;;;5032990;28;20036;-78
2021/03/08 11:14:06;;;;;;;28.60;17.42;;;10.30;83.00;;;;;;5031699;28;20025;-78
2021/03/08 11:16:33;;;;;;;29.73;17.65;;;10.40;83.00;;;;;;5032623;28;20028;-78
2021/03/08 11:19:16;;;;;;;29.45;17.40;;;10.50;80.30;;;;;;5033173;28;20033;-78
2021/03/08 11:21:42;;;;;;;30.05;19.17;;;10.40;78.70;;;;;;5030957;28;20044;-78
2021/03/08 11:24:16;;;;;;;27.25;17.65;;;10.50;79.10;;;;;;5042147;28;20037;-78
2021/03/08 11:26:43;;;;;;;32.22;18.65;;;10.40;79.00;;;;;;5051884;28;20021;-78
2021/03/08 11:29:23;;;;;;;27.50;18.40;;;10.50;80.70;;;;;;5051834;28;20032;-78
2021/03/08 11:31:53;;;;;;;31.25;20.30;;;10.70;80.50;;;;;;5049920;28;20033;-78
2021/03/08 11:34:39;;;;;;;29.90;18.35;;;10.80;79.70;;;;;;5050101;28;20021;-78
2021/03/08 11:37:14;;;;;;;29.25;17.80;;;10.90;82.40;;;;;;5051074;28;20047;-78
2021/03/08 11:40:03;;;;;;;28.80;18.17;;;11.00;78.80;;;;;;5052812;28;20056;-78
2021/03/08 11:42:29;;;;;;;30.88;19.23;;;11.10;80.70;;;;;;5051254;28;20112;-78
2021/03/08 11:44:55;;;;;;;27.92;18.77;;;11.10;78.60;;;;;;5052999;28;20167;-78
2021/03/08 11:47:21;;;;;;;29.85;19.50;;;11.10;79.30;;;;;;5050089;28;20382;-78
2021/03/08 11:49:47;;;;;;;27.17;18.40;;;11.20;78.50;;;;;;5051098;28;20021;-78
2021/03/08 11:52:13;;;;;;;31.23;19.40;;;11.20;79.40;;;;;;5049319;28;20106;-78
2021/03/08 11:54:39;;;;;;;30.63;18.42;;;11.20;77.60;;;;;;5052907;28;20378;-78
2021/03/08 11:57:07;;;;;;;31.45;19.35;;;11.30;79.70;;;;;;5049658;28;20029;-78
2021/03/08 11:59:33;;;;;;;27.83;17.05;;;11.40;78.90;;;;;;5048965;28;20029;-78
2021/03/08 12:02:03;;;;;;;28.67;17.80;;;11.40;78.30;;;;;;5064104;28;20535;-78
2021/03/08 12:04:29;;;;;;;29.00;18.42;;;11.50;78.20;;;;;;5054688;28;20574;-78
2021/03/08 12:06:54;;;;;;;29.15;18.63;;;11.60;78.50;;;;;;5054545;28;20104;-79
2021/03/08 12:09:21;;;;;;;33.10;16.98;;;11.70;77.10;;;;;;5069752;28;20429;-78
2021/03/08 12:11:47;;;;;;;29.08;17.85;;;11.70;76.50;;;;;;5038838;28;20052;-78
2021/03/08 12:14:13;;;;;;;23.50;16.60;;;11.70;76.60;;;;;;5033406;28;20028;-79
2021/03/08 12:16:38;;;;;;;28.20;19.08;;;11.70;74.70;;;;;;5034685;28;20025;-78
2021/03/08 12:19:04;;;;;;;26.52;17.58;;;11.60;75.10;;;;;;5033258;28;20471;-78
2021/03/08 12:21:30;;;;;;;32.70;18.63;;;11.50;75.00;;;;;;5034416;28;20025;-78
2021/03/08 12:23:57;;;;;;;27.38;17.60;;;11.50;76.60;;;;;;5051282;28;20091;-78
2021/03/08 12:26:23;;;;;;;27.70;17.83;;;11.60;76.60;;;;;;5035004;28;20479;-78
2021/03/08 12:28:49;;;;;;;27.60;17.90;;;11.70;75.70;;;;;;5035554;28;20048;-78
2021/03/08 12:31:16;;;;;;;26.08;17.25;;;11.90;77.10;;;;;;5037807;28;20598;-79
2021/03/08 12:33:42;;;;;;;29.80;18.00;;;12.00;76.70;;;;;;5052875;28;20078;-78
2021/03/08 12:36:08;;;;;;;35.50;17.15;;;12.10;76.50;;;;;;5045824;28;20021;-79
2021/03/08 12:38:34;;;;;;;32.33;17.85;;;12.20;76.60;;;;;;5038649;28;20493;-78
2021/03/08 12:41:04;;;;;;;23.35;15.85;;;12.20;74.80;;;;;;5032774;28;20036;-78
2021/03/08 12:43:30;;;;;;;28.70;17.30;;;12.20;74.70;;;;;;5034137;28;20112;-78
2021/03/08 12:45:56;;;;;;;27.08;18.17;;;12.20;74.80;;;;;;5032654;28;20164;-78
2021/03/08 12:48:21;;;;;;;23.98;16.80;;;12.20;73.70;;;;;;5033817;28;20136;-78
2021/03/08 12:50:48;;;;;;;28.35;17.73;;;12.20;74.60;;;;;;5034051;28;20032;-78
2021/03/08 12:53:14;;;;;;;26.13;16.58;;;12.20;74.10;;;;;;5034129;28;20100;-78
2021/03/08 12:55:40;;;;;;;28.88;17.70;;;12.20;73.80;;;;;;5038337;28;20031;-78
2021/03/08 12:58:05;;;;;;;23.08;15.75;;;12.20;74.40;;;;;;5053235;28;20025;-78